Nashville, MI (49073)

2:17 AM EDT on May 25, 2015 (GMT -0400)
APRSWXNET | | Change Station
CLOSE
Current Station
Personal Weather Station
Location: Woodland, MI
Elevation: 885 ft
Nearby Weather Stations

Elev 885 ft 42.75 °N, 85.11 °W | Updated 25 minutes ago

Partly Cloudy
Partly Cloudy
67 °F
Feels Like 67 °F
N
6
Wind Variable Wind from SW
Gusts 10.0 mph

Today
High -- | Low -- °F
--% Chance of Precip.
Yesterday
High -- | Low -- °F
Precip. -- in
6:09 AM 9:05 PM
Waxing Crescent, 46% visible
Pressure 30.00 in
Visibility 10.0 miles
Clouds Clear
Dew Point 55 °F
Humidity 66%
Rainfall in
Snow Depth Not available.
UV 0 out of 12
Pollen 10.00 out of 12
Air Quality Not available.
Flu Activity Sporadic
METAR KFPK 250555Z AUTO 15003KT 10SM CLR 17/12 A3000 RMK AO2 T01710115 10216 20167 402350096

More Conditions Fewer Conditions

Pressure 30.00 in
Visibility 10.0 miles
Clouds Clear
Dew Point 55 °F
Humidity 66%
Rainfall in
Snow Depth Not available.
UV 0 out of 12
Pollen 10.00 out of 12
Air Quality Not available.
Flu Activity Sporadic
METAR KFPK 250555Z AUTO 15003KT 10SM CLR 17/12 A3000 RMK AO2 T01710115 10216 20167 402350096

More Conditions Fewer Conditions

10-Day Weather Forecast

Almanac

Astronomy

May. 25, 2015 Rise Set
Actual Time
Civil Twilight
Nautical Twilight
Astronomical Twilight
Moon
Length of Visible Light
Length of Day
Tomorrow will be .
, % of the Moon is Illuminated

Today's Extremes

State Highs State Lows

Community

WunderPhotos

Upload Photos

1,823,957 photos uploaded!

WunderBlogs® & News

Nearby

Air Quality

  Air Quality AQ Index Pollutant
Not available.

Snow Depth

Station Depth Elevation

Earthquake Activity

City Distance Mag. Time & Date
Minimum magnitude displayed is 2.5.

Coastal Water Temperatures

Place Temperature

Stations

Nearby Weather Stations

Station Location Temp. Windchill Dew Point Humidity Wind Precip. Elev Updated Type